Time;durP1;ratioP1;P1;durP2;ratioP2;P2;SDS_P1;SDS_P2;PMS_P1;PMS_P2;Temp;Humidity;BMP_temperature;BMP_pressure;BME280_temperature;BME280_humidity;BME280_pressure;Samples;Min_cycle;Max_cycle;Signal;HPM_P1;HPM_P2
2022/08/22 00:01:25;;;;;;;7.65;3.85;;;;;;;;;;5069533;28;20033;-72
2022/08/22 00:04:16;;;;;;;9.40;3.53;;;;;;;;;;5063159;28;20124;-73
2022/08/22 00:07:05;;;;;;;5.75;3.60;;;;;;;;;;5056261;28;20034;-72
2022/08/22 00:10:05;;;;;;;5.10;3.20;;;;;;;;;;5069304;28;20036;-72
2022/08/22 00:13:03;;;;;;;5.15;3.15;;;;;;;;;;5073031;28;20024;-71
2022/08/22 00:15:56;;;;;;;7.95;3.33;;;;;;;;;;5057952;28;20028;-72
2022/08/22 00:18:46;;;;;;;6.70;3.47;;;;;;;;;;5071692;28;20063;-71
2022/08/22 00:21:39;;;;;;;7.00;3.92;;;;;;;;;;5070350;28;20036;-73
2022/08/22 00:24:40;;;;;;;5.80;2.75;;;;;;;;;;5071045;28;20028;-79
2022/08/22 00:27:32;;;;;;;6.65;2.95;;;;;;;;;;5049230;28;20059;-80
2022/08/22 00:30:18;;;;;;;6.32;3.40;;;;;;;;;;5064700;28;20032;-80
2022/08/22 00:33:08;;;;;;;6.68;3.50;;;;;;;;;;5060241;28;20024;-79
2022/08/22 00:36:04;;;;;;;5.65;2.97;;;;;;;;;;5070146;28;20029;-79
2022/08/22 00:39:02;;;;;;;7.63;3.75;;;;;;;;;;5062475;28;20037;-73
2022/08/22 00:42:03;;;;;;;6.18;3.10;;;;;;;;;;5060914;28;20032;-75
2022/08/22 00:44:51;;;;;;;4.93;3.25;;;;;;;;;;5067308;28;20056;-72
2022/08/22 00:47:43;;;;;;;8.25;3.40;;;;;;;;;;5069286;28;20070;-72
2022/08/22 00:50:33;;;;;;;5.60;2.83;;;;;;;;;;5075563;28;20035;-74
2022/08/22 00:53:34;;;;;;;7.30;3.47;;;;;;;;;;5060628;28;20166;-73
2022/08/22 00:56:23;;;;;;;5.68;3.20;;;;;;;;;;5073104;28;20039;-73
2022/08/22 00:59:27;;;;;;;6.80;3.65;;;;;;;;;;5074003;28;20029;-75
2022/08/22 01:02:32;;;;;;;6.00;3.75;;;;;;;;;;5063808;28;20035;-73
2022/08/22 01:05:33;;;;;;;7.70;3.38;;;;;;;;;;5072502;28;20031;-73
2022/08/22 01:08:37;;;;;;;5.80;3.30;;;;;;;;;;5072126;28;20032;-74
2022/08/22 01:11:32;;;;;;;4.97;3.00;;;;;;;;;;5073660;28;20027;-73
2022/08/22 01:14:21;;;;;;;4.90;2.85;;;;;;;;;;5066856;28;20036;-72
2022/08/22 01:17:13;;;;;;;6.95;3.83;;;;;;;;;;5065749;28;20055;-78
2022/08/22 01:19:59;;;;;;;6.82;3.65;;;;;;;;;;5072359;28;20082;-72
2022/08/22 01:22:50;;;;;;;7.28;3.28;;;;;;;;;;5062209;28;20029;-72
2022/08/22 01:26:05;;;;;;;9.02;3.80;;;;;;;;;;5056717;28;20078;-73
2022/08/22 01:29:09;;;;;;;6.25;3.38;;;;;;;;;;5068305;28;20037;-72
2022/08/22 01:31:58;;;;;;;8.50;4.05;;;;;;;;;;5067438;28;20056;-72
2022/08/22 01:34:59;;;;;;;7.07;4.13;;;;;;;;;;5062026;28;20483;-78
2022/08/22 01:37:44;;;;;;;6.22;3.30;;;;;;;;;;5052990;28;20040;-74
2022/08/22 01:40:45;;;;;;;5.43;3.38;;;;;;;;;;5070177;28;20035;-74
2022/08/22 01:43:54;;;;;;;9.52;4.43;;;;;;;;;;5072189;28;20032;-74
2022/08/22 01:47:02;;;;;;;7.28;3.90;;;;;;;;;;5065374;28;20071;-73
2022/08/22 01:50:03;;;;;;;7.93;4.07;;;;;;;;;;5054019;28;20384;-73
2022/08/22 01:52:51;;;;;;;7.10;4.25;;;;;;;;;;5070115;28;20483;-73
2022/08/22 01:55:45;;;;;;;8.15;3.85;;;;;;;;;;5060008;28;20086;-77
2022/08/22 01:58:33;;;;;;;8.32;4.63;;;;;;;;;;5053869;28;20029;-78
2022/08/22 02:01:28;;;;;;;6.60;4.00;;;;;;;;;;5065542;28;20028;-78
2022/08/22 02:04:17;;;;;;;7.57;4.13;;;;;;;;;;5066145;28;20119;-77
2022/08/22 02:07:07;;;;;;;8.15;3.85;;;;;;;;;;5073806;28;20099;-77
2022/08/22 02:09:59;;;;;;;7.07;4.43;;;;;;;;;;5074153;28;20024;-78
2022/08/22 02:13:07;;;;;;;8.02;4.18;;;;;;;;;;5073752;28;20384;-72
2022/08/22 02:15:59;;;;;;;7.28;4.22;;;;;;;;;;5072797;28;20377;-76
2022/08/22 02:19:04;;;;;;;6.90;3.97;;;;;;;;;;5071955;28;20047;-76
2022/08/22 02:21:52;;;;;;;6.43;3.90;;;;;;;;;;5072226;28;20111;-76
2022/08/22 02:24:58;;;;;;;5.32;3.28;;;;;;;;;;5071108;28;20029;-76
2022/08/22 02:27:46;;;;;;;7.53;3.70;;;;;;;;;;5062818;28;20499;-76
2022/08/22 02:30:41;;;;;;;6.60;3.75;;;;;;;;;;5072621;28;20035;-72
2022/08/22 02:33:33;;;;;;;9.57;4.53;;;;;;;;;;5072467;28;20119;-72
2022/08/22 02:36:22;;;;;;;8.45;3.97;;;;;;;;;;5067047;28;20055;-72
2022/08/22 02:39:26;;;;;;;6.60;3.47;;;;;;;;;;5064801;28;20032;-72
2022/08/22 02:42:21;;;;;;;8.25;3.92;;;;;;;;;;5058839;28;20075;-72
2022/08/22 02:45:34;;;;;;;6.25;3.40;;;;;;;;;;5063882;28;20036;-72
2022/08/22 02:48:40;;;;;;;5.60;3.47;;;;;;;;;;5070708;28;20020;-74
2022/08/22 02:51:26;;;;;;;6.63;3.28;;;;;;;;;;5072511;28;20414;-73
2022/08/22 02:54:15;;;;;;;7.90;3.72;;;;;;;;;;5072650;28;20040;-73
2022/08/22 02:57:07;;;;;;;6.00;3.83;;;;;;;;;;5052541;28;20547;-73
2022/08/22 03:00:15;;;;;;;9.15;4.25;;;;;;;;;;5056041;28;20418;-72
2022/08/22 03:03:12;;;;;;;6.32;3.40;;;;;;;;;;5069499;28;20055;-73
2022/08/22 03:06:00;;;;;;;7.60;2.85;;;;;;;;;;5061013;28;20082;-73
2022/08/22 03:09:05;;;;;;;9.02;3.95;;;;;;;;;;5071757;28;20027;-75
2022/08/22 03:11:58;;;;;;;7.05;4.03;;;;;;;;;;5072904;28;20479;-76
2022/08/22 03:15:04;;;;;;;6.13;3.88;;;;;;;;;;5072028;28;20613;-79
2022/08/22 03:17:56;;;;;;;7.03;3.78;;;;;;;;;;5064560;28;20097;-79
2022/08/22 03:20:51;;;;;;;5.32;3.22;;;;;;;;;;5072386;28;20032;-79
2022/08/22 03:23:42;;;;;;;5.72;3.55;;;;;;;;;;5072012;28;20090;-79
2022/08/22 03:26:32;;;;;;;7.57;4.03;;;;;;;;;;5071162;28;20055;-77
2022/08/22 03:29:27;;;;;;;7.40;4.22;;;;;;;;;;5058681;28;20107;-72
2022/08/22 03:32:20;;;;;;;6.35;3.83;;;;;;;;;;5070740;28;20033;-71
2022/08/22 03:35:09;;;;;;;6.32;3.70;;;;;;;;;;5069367;28;20029;-72
2022/08/22 03:38:07;;;;;;;8.10;4.35;;;;;;;;;;5069209;28;20055;-73
2022/08/22 03:41:05;;;;;;;6.25;3.92;;;;;;;;;;5056242;28;20035;-72
2022/08/22 03:43:53;;;;;;;7.68;3.60;;;;;;;;;;5071173;28;20085;-73
2022/08/22 03:46:48;;;;;;;7.65;3.95;;;;;;;;;;5070848;28;20028;-76
2022/08/22 03:49:53;;;;;;;6.75;3.78;;;;;;;;;;5065970;28;20036;-76
2022/08/22 03:53:06;;;;;;;8.70;3.88;;;;;;;;;;5067388;28;20024;-77
2022/08/22 03:56:07;;;;;;;8.35;4.00;;;;;;;;;;5056947;28;20028;-78
2022/08/22 03:58:53;;;;;;;6.30;3.28;;;;;;;;;;5058318;28;20091;-76
2022/08/22 04:01:57;;;;;;;8.38;3.90;;;;;;;;;;5059531;28;20025;-73
2022/08/22 04:04:58;;;;;;;9.25;4.25;;;;;;;;;;5054716;28;20024;-74
2022/08/22 04:07:43;;;;;;;8.15;3.90;;;;;;;;;;5056829;28;20120;-74
2022/08/22 04:10:49;;;;;;;6.32;3.88;;;;;;;;;;5071001;28;20361;-75
2022/08/22 04:13:53;;;;;;;6.55;3.70;;;;;;;;;;5071177;28;20487;-74
2022/08/22 04:16:42;;;;;;;10.10;4.32;;;;;;;;;;5052132;28;20107;-73
2022/08/22 04:19:37;;;;;;;5.50;3.60;;;;;;;;;;5069897;28;20038;-75
2022/08/22 04:22:29;;;;;;;8.73;4.35;;;;;;;;;;5069233;28;20462;-73
2022/08/22 04:25:22;;;;;;;9.68;3.53;;;;;;;;;;5054631;28;20020;-73
2022/08/22 04:28:12;;;;;;;7.43;4.00;;;;;;;;;;5055110;28;20052;-73
2022/08/22 04:31:07;;;;;;;7.20;3.65;;;;;;;;;;5058934;28;20493;-74
2022/08/22 04:33:56;;;;;;;6.25;3.67;;;;;;;;;;5069497;28;20029;-73
2022/08/22 04:36:44;;;;;;;8.30;3.97;;;;;;;;;;5069623;28;20116;-73
2022/08/22 04:39:37;;;;;;;7.13;3.90;;;;;;;;;;5070630;28;20036;-77
2022/08/22 04:42:35;;;;;;;8.57;3.85;;;;;;;;;;5064529;28;20033;-72
2022/08/22 04:45:33;;;;;;;8.15;3.63;;;;;;;;;;5063472;28;20072;-72
2022/08/22 04:48:37;;;;;;;6.70;3.90;;;;;;;;;;5068833;28;20037;-72
2022/08/22 04:51:23;;;;;;;8.15;4.10;;;;;;;;;;5055392;28;20383;-72
2022/08/22 04:54:12;;;;;;;8.77;4.15;;;;;;;;;;5068775;28;20031;-73
2022/08/22 04:57:01;;;;;;;7.63;4.30;;;;;;;;;;5069914;28;20483;-77
2022/08/22 04:59:48;;;;;;;6.85;4.10;;;;;;;;;;5063974;28;20311;-75
2022/08/22 05:02:36;;;;;;;8.27;4.63;;;;;;;;;;5064848;28;20067;-75
2022/08/22 05:05:30;;;;;;;7.55;3.88;;;;;;;;;;5064625;28;20017;-76
2022/08/22 05:08:19;;;;;;;7.05;4.13;;;;;;;;;;5055931;28;20472;-75
2022/08/22 05:11:05;;;;;;;6.82;4.47;;;;;;;;;;5067509;28;20406;-74
2022/08/22 05:13:57;;;;;;;9.45;4.45;;;;;;;;;;5061222;28;20024;-77
2022/08/22 05:16:44;;;;;;;8.38;4.50;;;;;;;;;;5057730;28;20094;-72
2022/08/22 05:19:33;;;;;;;7.97;4.60;;;;;;;;;;5068593;28;20166;-76
2022/08/22 05:22:21;;;;;;;8.95;4.78;;;;;;;;;;5059233;28;20082;-75
2022/08/22 05:25:09;;;;;;;8.77;4.53;;;;;;;;;;5056900;28;20037;-74
2022/08/22 05:28:10;;;;;;;7.33;4.90;;;;;;;;;;5071847;28;20029;-74
2022/08/22 05:30:56;;;;;;;8.38;4.43;;;;;;;;;;5074111;28;20448;-75
2022/08/22 05:33:46;;;;;;;8.00;4.28;;;;;;;;;;5072457;28;20021;-76
2022/08/22 05:36:37;;;;;;;6.97;4.68;;;;;;;;;;5060720;28;20507;-73
2022/08/22 05:39:24;;;;;;;8.10;4.93;;;;;;;;;;5066295;28;20070;-73
2022/08/22 05:42:36;;;;;;;9.55;5.18;;;;;;;;;;5055697;28;20059;-73
2022/08/22 05:45:23;;;;;;;8.32;4.78;;;;;;;;;;5068823;28;20033;-73
2022/08/22 05:48:16;;;;;;;9.23;4.95;;;;;;;;;;5072192;28;20029;-73
2022/08/22 05:51:10;;;;;;;12.85;4.95;;;;;;;;;;5072219;28;20071;-73
2022/08/22 05:54:06;;;;;;;9.75;5.10;;;;;;;;;;5070722;28;20025;-74
2022/08/22 05:57:01;;;;;;;10.32;5.63;;;;;;;;;;5070758;28;20032;-74
2022/08/22 05:59:50;;;;;;;9.55;4.50;;;;;;;;;;5059438;28;20032;-75
2022/08/22 06:02:56;;;;;;;9.52;4.63;;;;;;;;;;5071403;28;20029;-75
2022/08/22 06:05:44;;;;;;;7.45;4.45;;;;;;;;;;5055003;28;20044;-75
2022/08/22 06:08:33;;;;;;;9.85;4.82;;;;;;;;;;5056720;28;20055;-75
2022/08/22 06:11:24;;;;;;;6.70;4.28;;;;;;;;;;5057619;28;20070;-74
2022/08/22 06:14:25;;;;;;;8.85;4.45;;;;;;;;;;5070314;28;20090;-78
2022/08/22 06:17:23;;;;;;;9.05;5.55;;;;;;;;;;5061661;28;20406;-77
2022/08/22 06:20:11;;;;;;;10.52;4.75;;;;;;;;;;5071409;28;20052;-78
2022/08/22 06:22:59;;;;;;;6.97;4.72;;;;;;;;;;5072948;28;20079;-78
2022/08/22 06:25:46;;;;;;;9.63;4.97;;;;;;;;;;5063013;28;20040;-77
2022/08/22 06:28:35;;;;;;;8.95;4.75;;;;;;;;;;5073496;28;20077;-76
2022/08/22 06:31:23;;;;;;;9.82;5.03;;;;;;;;;;5073722;28;20115;-73
2022/08/22 06:34:14;;;;;;;9.23;5.30;;;;;;;;;;5064535;28;20040;-77
2022/08/22 06:37:02;;;;;;;11.05;4.53;;;;;;;;;;5068110;28;20040;-75
2022/08/22 06:39:49;;;;;;;9.57;5.15;;;;;;;;;;5072045;28;20488;-76
2022/08/22 06:42:40;;;;;;;10.73;5.05;;;;;;;;;;5072149;28;20042;-75
2022/08/22 06:45:30;;;;;;;8.82;4.45;;;;;;;;;;5071369;28;20037;-76
2022/08/22 06:48:18;;;;;;;10.02;4.43;;;;;;;;;;5073224;28;20039;-75
2022/08/22 06:51:06;;;;;;;7.82;4.70;;;;;;;;;;5068460;28;20021;-74
2022/08/22 06:53:53;;;;;;;8.07;4.25;;;;;;;;;;5064302;28;20036;-73
2022/08/22 06:56:40;;;;;;;9.02;4.93;;;;;;;;;;5058486;28;20028;-73
2022/08/22 06:59:27;;;;;;;7.03;4.25;;;;;;;;;;5071161;28;20020;-72
2022/08/22 07:02:32;;;;;;;7.78;4.47;;;;;;;;;;5059436;28;20068;-72
2022/08/22 07:05:27;;;;;;;8.15;4.28;;;;;;;;;;5054226;28;20028;-72
2022/08/22 07:08:13;;;;;;;7.13;4.00;;;;;;;;;;5052520;28;20488;-77
2022/08/22 07:11:14;;;;;;;13.05;5.82;;;;;;;;;;5069660;28;20029;-72
2022/08/22 07:14:02;;;;;;;6.05;3.63;;;;;;;;;;5062979;28;20517;-72
2022/08/22 07:16:54;;;;;;;7.68;4.05;;;;;;;;;;5057552;28;20666;-73
2022/08/22 07:19:44;;;;;;;5.10;3.50;;;;;;;;;;5071122;28;20029;-73
2022/08/22 07:22:32;;;;;;;6.68;3.55;;;;;;;;;;5062007;28;20079;-72
2022/08/22 07:25:17;;;;;;;9.07;4.30;;;;;;;;;;5065060;28;20033;-72
2022/08/22 07:28:03;;;;;;;9.57;3.78;;;;;;;;;;5064513;28;20467;-73
2022/08/22 07:31:05;;;;;;;7.97;3.70;;;;;;;;;;5072503;28;20033;-74
2022/08/22 07:33:53;;;;;;;7.75;3.65;;;;;;;;;;5070803;28;20570;-73
2022/08/22 07:36:49;;;;;;;7.15;3.00;;;;;;;;;;5071348;28;20036;-74
2022/08/22 07:39:37;;;;;;;5.13;2.92;;;;;;;;;;5064566;28;20028;-73
2022/08/22 07:42:38;;;;;;;5.95;2.97;;;;;;;;;;5071401;28;20561;-77
2022/08/22 07:45:35;;;;;;;6.65;2.85;;;;;;;;;;5070892;28;20034;-75
2022/08/22 07:48:26;;;;;;;5.75;3.42;;;;;;;;;;5060975;28;20028;-77
2022/08/22 07:51:14;;;;;;;5.82;2.97;;;;;;;;;;5056368;28;20063;-76
2022/08/22 07:54:05;;;;;;;8.35;3.35;;;;;;;;;;5070878;28;20039;-77
2022/08/22 07:57:04;;;;;;;8.45;2.90;;;;;;;;;;5072195;28;20031;-77
2022/08/22 07:59:51;;;;;;;4.97;3.28;;;;;;;;;;5072097;28;20036;-77
2022/08/22 08:02:38;;;;;;;4.50;2.75;;;;;;;;;;5055412;28;20033;-75
2022/08/22 08:05:26;;;;;;;6.93;2.97;;;;;;;;;;5066043;28;20028;-76
2022/08/22 08:08:20;;;;;;;4.78;2.90;;;;;;;;;;5057365;28;20036;-76
2022/08/22 08:11:06;;;;;;;7.63;3.13;;;;;;;;;;5069667;28;20415;-76
2022/08/22 08:13:56;;;;;;;5.35;2.67;;;;;;;;;;5070174;28;20230;-76
2022/08/22 08:16:46;;;;;;;6.65;3.30;;;;;;;;;;5053455;28;20036;-77
2022/08/22 08:19:34;;;;;;;4.90;2.72;;;;;;;;;;5063814;28;20110;-73
2022/08/22 08:22:22;;;;;;;5.05;2.70;;;;;;;;;;5049055;28;20044;-77
2022/08/22 08:25:11;;;;;;;5.25;3.05;;;;;;;;;;5034674;28;20115;-76
2022/08/22 08:31:07;;;;;;;5.45;3.10;;;;;;;;;;5036526;28;20076;-76
2022/08/22 08:33:57;;;;;;;4.28;2.42;;;;;;;;;;5047547;28;20491;-76
2022/08/22 08:36:51;;;;;;;5.45;2.78;;;;;;;;;;5047227;28;20495;-77
2022/08/22 08:39:43;;;;;;;6.30;2.58;;;;;;;;;;5025274;28;20032;-77
2022/08/22 08:46:07;;;;;;;6.05;3.00;;;;;;;;;;5045130;28;20459;-73
2022/08/22 08:48:55;;;;;;;5.13;2.63;;;;;;;;;;5035034;28;20040;-74
2022/08/22 08:51:52;;;;;;;5.95;2.88;;;;;;;;;;5039686;28;20057;-74
2022/08/22 08:54:48;;;;;;;5.80;2.83;;;;;;;;;;5065139;28;20120;-74
2022/08/22 08:57:40;;;;;;;4.35;2.67;;;;;;;;;;5064931;28;20027;-76
2022/08/22 09:00:32;;;;;;;5.95;3.00;;;;;;;;;;5062080;28;20024;-77
2022/08/22 09:03:53;;;;;;;4.57;3.10;;;;;;;;;;5058914;28;20162;-78
2022/08/22 09:06:46;;;;;;;4.75;2.70;;;;;;;;;;4997292;28;20026;-78
2022/08/22 09:09:35;;;;;;;5.50;2.72;;;;;;;;;;5069773;28;20064;-78
2022/08/22 09:12:20;;;;;;;;;;;;;;;;;;5062455;28;20033;-77
2022/08/22 09:15:09;;;;;;;5.18;2.90;;;;;;;;;;5053744;28;19916;-77
2022/08/22 09:17:54;;;;;;;;;;;;;;;;;;5069030;28;20028;-74
2022/08/22 09:20:50;;;;;;;3.60;2.40;;;;;;;;;;5054904;28;19961;-75
2022/08/22 09:23:46;;;;;;;5.85;3.20;;;;;;;;;;5058293;28;20048;-75
2022/08/22 09:26:34;;;;;;;7.15;3.20;;;;;;;;;;5071619;28;20497;-76
2022/08/22 09:29:20;;;;;;;;;;;;;;;;;;5053723;28;20025;-75
2022/08/22 09:32:05;;;;;;;5.78;2.85;;;;;;;;;;5068358;28;19913;-75
2022/08/22 09:35:07;;;;;;;4.78;3.15;;;;;;;;;;5055570;28;20025;-73
2022/08/22 09:37:52;;;;;;;4.47;2.92;;;;;;;;;;5054338;28;20029;-78
2022/08/22 09:40:43;;;;;;;3.92;3.10;;;;;;;;;;5061114;28;20035;-78
2022/08/22 09:43:48;;;;;;;5.53;2.85;;;;;;;;;;5075008;28;20025;-76
2022/08/22 09:46:47;;;;;;;3.70;2.55;;;;;;;;;;5064463;28;20479;-79
2022/08/22 09:49:50;;;;;;;4.95;2.80;;;;;;;;;;5061283;28;20028;-78
2022/08/22 09:52:48;;;;;;;4.05;2.80;;;;;;;;;;5057226;28;20103;-77
2022/08/22 09:55:38;;;;;;;3.45;2.50;;;;;;;;;;5059089;28;20033;-78
2022/08/22 09:58:36;;;;;;;6.50;2.70;;;;;;;;;;5061605;28;20036;-78
2022/08/22 10:01:22;;;;;;;6.28;2.67;;;;;;;;;;5059611;28;20032;-79
2022/08/22 10:04:13;;;;;;;4.28;2.70;;;;;;;;;;5059045;28;20033;-80
2022/08/22 10:07:18;;;;;;;4.50;2.42;;;;;;;;;;5060398;28;20029;-79
2022/08/22 10:10:03;;;;;;;4.15;2.75;;;;;;;;;;5063819;28;20028;-76
2022/08/22 10:12:53;;;;;;;3.63;2.63;;;;;;;;;;5067026;28;20033;-75
2022/08/22 10:15:43;;;;;;;3.45;2.47;;;;;;;;;;5072454;28;20025;-74
2022/08/22 10:18:36;;;;;;;3.53;2.47;;;;;;;;;;5069514;28;20108;-78
2022/08/22 10:21:29;;;;;;;6.80;3.67;;;;;;;;;;5073135;28;20040;-76
2022/08/22 10:24:25;;;;;;;4.65;2.70;;;;;;;;;;5053709;28;20128;-75
2022/08/22 10:27:16;;;;;;;3.08;2.15;;;;;;;;;;5067091;28;20025;-75
2022/08/22 10:30:08;;;;;;;4.93;2.70;;;;;;;;;;5068762;28;20032;-74
2022/08/22 10:32:54;;;;;;;6.72;2.60;;;;;;;;;;5072302;28;20055;-77
2022/08/22 10:35:42;;;;;;;3.10;2.22;;;;;;;;;;5071095;28;20068;-77
2022/08/22 10:38:28;;;;;;;;;;;;;;;;;;5072847;28;20392;-77
2022/08/22 10:41:17;;;;;;;5.00;2.92;;;;;;;;;;5059880;28;19912;-79
2022/08/22 10:44:12;;;;;;;5.15;2.67;;;;;;;;;;5056284;28;20407;-76
2022/08/22 10:47:15;;;;;;;6.15;2.95;;;;;;;;;;5071629;28;20505;-78
2022/08/22 10:50:13;;;;;;;5.18;2.90;;;;;;;;;;5063768;28;20059;-75
2022/08/22 10:56:14;;;;;;;6.65;3.30;;;;;;;;;;5071264;28;20037;-74
2022/08/22 10:59:19;;;;;;;4.45;2.80;;;;;;;;;;5059017;28;20095;-75
2022/08/22 11:02:13;;;;;;;6.10;2.90;;;;;;;;;;5063734;28;20036;-75
2022/08/22 11:05:18;;;;;;;3.95;2.70;;;;;;;;;;5066904;28;20090;-76
2022/08/22 11:08:22;;;;;;;5.43;3.17;;;;;;;;;;5053554;28;20037;-75
2022/08/22 11:11:15;;;;;;;4.55;3.00;;;;;;;;;;5064747;28;20387;-74
2022/08/22 11:14:11;;;;;;;5.32;3.25;;;;;;;;;;5062021;28;20391;-75
2022/08/22 11:17:03;;;;;;;3.78;2.72;;;;;;;;;;5058704;28;20032;-75
2022/08/22 11:19:59;;;;;;;8.38;3.47;;;;;;;;;;5070935;28;20032;-73
2022/08/22 11:22:54;;;;;;;5.88;3.00;;;;;;;;;;5071606;28;20032;-74
2022/08/22 11:25:42;;;;;;;3.95;2.67;;;;;;;;;;5071074;28;20060;-75
2022/08/22 11:28:34;;;;;;;5.00;3.33;;;;;;;;;;5055040;28;20032;-75
2022/08/22 11:31:21;;;;;;;5.70;2.67;;;;;;;;;;5052813;28;20079;-76
2022/08/22 11:34:22;;;;;;;3.35;2.50;;;;;;;;;;5063714;28;20025;-76
2022/08/22 11:37:07;;;;;;;5.93;3.10;;;;;;;;;;5064326;28;20423;-76
2022/08/22 11:40:02;;;;;;;3.85;2.60;;;;;;;;;;5065879;28;20024;-76
2022/08/22 11:42:56;;;;;;;5.85;3.13;;;;;;;;;;5070310;28;20472;-73
2022/08/22 11:45:46;;;;;;;3.75;3.10;;;;;;;;;;5071630;28;20104;-74
2022/08/22 11:48:47;;;;;;;6.70;3.05;;;;;;;;;;5071665;28;20395;-75
2022/08/22 11:51:33;;;;;;;5.43;2.90;;;;;;;;;;5071661;28;20063;-74
2022/08/22 11:54:28;;;;;;;6.78;2.88;;;;;;;;;;5066735;28;20103;-75
2022/08/22 11:57:16;;;;;;;6.00;3.30;;;;;;;;;;5064307;28;20083;-75
2022/08/22 12:00:21;;;;;;;5.17;2.77;;;;;;;;;;5070435;28;20028;-75
2022/08/22 12:03:37;;;;;;;7.28;3.08;;;;;;;;;;5056057;28;20495;-75
2022/08/22 12:06:41;;;;;;;6.68;3.00;;;;;;;;;;5055011;28;20091;-75
2022/08/22 12:09:45;;;;;;;5.07;3.08;;;;;;;;;;5064925;28;20036;-75
2022/08/22 12:12:52;;;;;;;6.80;3.28;;;;;;;;;;5050206;28;20060;-74
2022/08/22 12:15:40;;;;;;;5.68;3.00;;;;;;;;;;5062792;28;20071;-74
2022/08/22 12:18:26;;;;;;;5.97;3.40;;;;;;;;;;5071363;28;20147;-74
2022/08/22 12:21:30;;;;;;;4.15;3.00;;;;;;;;;;5057567;28;20077;-75
2022/08/22 12:24:24;;;;;;;7.40;2.92;;;;;;;;;;5059913;28;20036;-75
2022/08/22 12:27:13;;;;;;;5.18;2.50;;;;;;;;;;5063526;28;20033;-76
2022/08/22 12:29:58;;;;;;;6.90;3.28;;;;;;;;;;5066369;28;20024;-75
2022/08/22 12:33:03;;;;;;;5.60;3.38;;;;;;;;;;5069848;28;20033;-75
2022/08/22 12:36:13;;;;;;;4.07;2.85;;;;;;;;;;5069267;28;20025;-76
2022/08/22 12:38:58;;;;;;;5.38;3.70;;;;;;;;;;5071670;28;20032;-76
2022/08/22 12:42:17;;;;;;;5.22;3.10;;;;;;;;;;5073548;28;20028;-77
2022/08/22 12:45:11;;;;;;;3.38;2.85;;;;;;;;;;5040769;28;20105;-76
2022/08/22 12:47:56;;;;;;;5.65;3.42;;;;;;;;;;5075258;28;20166;-77
2022/08/22 12:50:45;;;;;;;8.25;3.38;;;;;;;;;;5074735;28;20402;-75
2022/08/22 12:53:36;;;;;;;5.40;3.30;;;;;;;;;;5074982;28;20437;-76
2022/08/22 12:56:30;;;;;;;6.43;3.20;;;;;;;;;;5062132;28;20139;-74
2022/08/22 12:59:19;;;;;;;5.63;3.22;;;;;;;;;;5073482;28;20075;-74
2022/08/22 13:02:05;;;;;;;;;;;;;;;;;;5071276;28;20113;-74
2022/08/22 13:04:50;;;;;;;5.18;3.03;;;;;;;;;;5072376;28;19924;-74
2022/08/22 13:07:37;;;;;;;6.05;2.70;;;;;;;;;;5057457;28;20044;-72
2022/08/22 13:10:23;;;;;;;4.50;2.83;;;;;;;;;;5064846;28;20033;-76
2022/08/22 13:13:11;;;;;;;4.38;2.55;;;;;;;;;;5072715;28;20016;-75
2022/08/22 13:15:59;;;;;;;5.20;3.13;;;;;;;;;;5072875;28;20103;-74
2022/08/22 13:18:45;;;;;;;6.07;3.13;;;;;;;;;;5074070;28;20032;-75
2022/08/22 13:21:32;;;;;;;3.55;2.78;;;;;;;;;;5072695;28;20032;-75
2022/08/22 13:24:23;;;;;;;4.18;3.25;;;;;;;;;;5073665;28;20037;-75
2022/08/22 13:27:14;;;;;;;7.18;2.63;;;;;;;;;;5068660;28;20464;-75
2022/08/22 13:30:02;;;;;;;4.28;2.92;;;;;;;;;;5068633;28;20036;-75
2022/08/22 13:33:00;;;;;;;4.43;2.63;;;;;;;;;;5053874;28;20060;-75
2022/08/22 13:35:52;;;;;;;4.97;3.20;;;;;;;;;;5058772;28;20056;-74
2022/08/22 13:38:45;;;;;;;4.80;2.83;;;;;;;;;;5062742;28;20082;-74
2022/08/22 13:41:37;;;;;;;5.43;2.85;;;;;;;;;;5072810;28;20046;-74
2022/08/22 13:44:23;;;;;;;7.82;3.22;;;;;;;;;;5060681;28;20032;-75
2022/08/22 13:47:10;;;;;;;5.00;2.60;;;;;;;;;;5071907;28;20035;-75
2022/08/22 13:50:06;;;;;;;5.75;2.53;;;;;;;;;;5072704;28;20545;-75
2022/08/22 13:52:57;;;;;;;4.07;2.65;;;;;;;;;;5068107;28;20037;-73
2022/08/22 13:55:52;;;;;;;2.83;2.45;;;;;;;;;;5052423;28;20029;-76
2022/08/22 13:58:41;;;;;;;4.90;3.00;;;;;;;;;;5063575;28;20087;-77
2022/08/22 14:01:36;;;;;;;6.22;3.30;;;;;;;;;;5071175;28;20108;-76
2022/08/22 14:04:30;;;;;;;4.82;2.63;;;;;;;;;;5071797;28;20039;-75
2022/08/22 14:07:23;;;;;;;4.18;2.95;;;;;;;;;;5065463;28;20428;-76
2022/08/22 14:10:11;;;;;;;5.57;3.47;;;;;;;;;;5070963;28;20016;-76
2022/08/22 14:12:57;;;;;;;4.60;2.80;;;;;;;;;;5069590;28;20454;-78
2022/08/22 14:15:43;;;;;;;4.68;2.45;;;;;;;;;;5064759;28;20028;-77
2022/08/22 14:18:37;;;;;;;5.75;3.17;;;;;;;;;;5070966;28;20031;-78
2022/08/22 14:21:44;;;;;;;3.97;2.60;;;;;;;;;;5073536;28;20068;-78
2022/08/22 14:24:31;;;;;;;4.82;2.35;;;;;;;;;;5065099;28;20033;-78
2022/08/22 14:27:29;;;;;;;4.32;2.20;;;;;;;;;;5072978;28;20032;-75
2022/08/22 14:30:19;;;;;;;5.35;2.67;;;;;;;;;;5071774;28;20407;-76
2022/08/22 14:33:25;;;;;;;5.20;2.55;;;;;;;;;;5072430;28;20024;-75
2022/08/22 14:36:20;;;;;;;5.00;2.70;;;;;;;;;;5072180;28;20091;-74
2022/08/22 14:39:15;;;;;;;5.03;2.65;;;;;;;;;;5063163;28;20063;-74
2022/08/22 14:42:10;;;;;;;5.05;2.85;;;;;;;;;;5070435;28;20028;-75
2022/08/22 14:45:03;;;;;;;3.33;2.40;;;;;;;;;;5069321;28;20032;-74
2022/08/22 14:47:52;;;;;;;5.43;3.17;;;;;;;;;;5052519;28;20365;-76
2022/08/22 14:50:38;;;;;;;3.22;2.40;;;;;;;;;;5065024;28;20032;-75
2022/08/22 14:53:29;;;;;;;2.85;2.33;;;;;;;;;;5052572;28;20040;-75
2022/08/22 14:56:21;;;;;;;3.55;2.55;;;;;;;;;;5070067;28;20041;-76
2022/08/22 14:59:10;;;;;;;4.25;2.50;;;;;;;;;;5071071;28;20033;-75
2022/08/22 15:01:58;;;;;;;4.35;2.70;;;;;;;;;;5072391;28;20085;-76
2022/08/22 15:04:46;;;;;;;5.90;2.95;;;;;;;;;;5071194;28;20099;-76
2022/08/22 15:07:33;;;;;;;6.90;2.65;;;;;;;;;;5071034;28;20036;-76
2022/08/22 15:10:21;;;;;;;4.93;2.72;;;;;;;;;;5059886;28;20463;-76
2022/08/22 15:13:08;;;;;;;4.70;2.70;;;;;;;;;;5071925;28;20431;-77
2022/08/22 15:15:54;;;;;;;5.25;3.30;;;;;;;;;;5072713;28;20033;-76
2022/08/22 15:18:40;;;;;;;4.50;2.85;;;;;;;;;;5073164;28;20029;-75
2022/08/22 15:21:27;;;;;;;7.40;3.53;;;;;;;;;;5071761;28;20058;-76
2022/08/22 15:24:13;;;;;;;5.18;2.60;;;;;;;;;;5058664;28;20111;-75
2022/08/22 15:26:59;;;;;;;5.75;3.20;;;;;;;;;;5069149;28;20025;-73
2022/08/22 15:30:05;;;;;;;8.23;2.20;;;;;;;;;;5070837;28;20424;-73
2022/08/22 15:32:51;;;;;;;5.45;3.05;;;;;;;;;;5061212;28;20060;-73
2022/08/22 15:35:37;;;;;;;4.28;2.65;;;;;;;;;;5071183;28;20036;-72
2022/08/22 15:38:24;;;;;;;3.25;2.58;;;;;;;;;;5071747;28;20028;-73
2022/08/22 15:41:28;;;;;;;3.15;2.60;;;;;;;;;;5056656;28;20032;-75
2022/08/22 15:44:20;;;;;;;3.55;2.63;;;;;;;;;;5056620;28;20028;-75
2022/08/22 15:47:08;;;;;;;4.13;2.78;;;;;;;;;;5058266;28;20078;-76
2022/08/22 15:49:56;;;;;;;6.88;2.90;;;;;;;;;;5051935;28;20094;-76
2022/08/22 15:53:00;;;;;;;5.00;2.50;;;;;;;;;;5068345;28;20021;-76
2022/08/22 15:56:01;;;;;;;4.90;2.65;;;;;;;;;;5072373;28;20287;-75
2022/08/22 15:58:48;;;;;;;3.80;2.45;;;;;;;;;;5057643;28;20104;-77
2022/08/22 16:01:40;;;;;;;4.25;2.55;;;;;;;;;;5052133;28;20395;-79
2022/08/22 16:04:33;;;;;;;7.40;2.88;;;;;;;;;;5067862;28;20051;-74
2022/08/22 16:07:22;;;;;;;5.18;2.75;;;;;;;;;;5062914;28;20028;-73
2022/08/22 16:10:08;;;;;;;;;;;;;;;;;;5069055;28;20024;-74
2022/08/22 16:13:08;;;;;;;6.70;3.10;;;;;;;;;;5069809;28;19917;-73
2022/08/22 16:15:54;;;;;;;5.32;2.65;;;;;;;;;;5070428;28;20035;-74
2022/08/22 16:18:41;;;;;;;7.70;3.55;;;;;;;;;;5070146;28;20052;-79
2022/08/22 16:21:26;;;;;;;5.10;2.50;;;;;;;;;;5070911;28;20036;-75
2022/08/22 16:24:12;;;;;;;5.40;2.90;;;;;;;;;;5062461;28;20055;-76
2022/08/22 16:26:58;;;;;;;5.20;2.67;;;;;;;;;;5052501;28;20032;-76
2022/08/22 16:29:44;;;;;;;4.10;3.20;;;;;;;;;;5069890;28;20035;-75
2022/08/22 16:32:31;;;;;;;5.22;2.50;;;;;;;;;;5051308;28;20064;-76
2022/08/22 16:35:35;;;;;;;4.07;2.58;;;;;;;;;;5066169;28;20040;-75
2022/08/22 16:38:24;;;;;;;4.90;2.65;;;;;;;;;;5069778;28;20045;-76
2022/08/22 16:41:09;;;;;;;;;;;;;;;;;;5049509;28;20037;-73
2022/08/22 16:44:14;;;;;;;5.68;2.80;;;;;;;;;;5052917;28;19913;-73
2022/08/22 16:47:26;;;;;;;4.47;2.65;;;;;;;;;;5069925;28;20098;-72
2022/08/22 16:50:14;;;;;;;4.00;2.45;;;;;;;;;;5048921;28;20048;-74
2022/08/22 16:53:00;;;;;;;5.10;2.97;;;;;;;;;;5056934;28;20032;-73
2022/08/22 16:56:12;;;;;;;5.15;2.70;;;;;;;;;;5067807;28;20044;-72
2022/08/22 16:59:02;;;;;;;5.72;2.97;;;;;;;;;;5070006;28;20028;-72
2022/08/22 17:01:54;;;;;;;6.13;2.80;;;;;;;;;;5071397;28;20063;-72
2022/08/22 17:04:49;;;;;;;5.10;2.47;;;;;;;;;;5067171;28;20024;-73
2022/08/22 17:07:53;;;;;;;6.05;2.80;;;;;;;;;;5069339;28;20035;-72
2022/08/22 17:10:58;;;;;;;2.75;1.95;;;;;;;;;;5062000;28;20032;-72
2022/08/22 17:14:07;;;;;;;4.82;2.55;;;;;;;;;;5058604;28;20056;-77
2022/08/22 17:17:16;;;;;;;3.83;2.50;;;;;;;;;;5068232;28;20407;-73
2022/08/22 17:20:20;;;;;;;6.68;2.47;;;;;;;;;;5070635;28;20037;-73
2022/08/22 17:23:25;;;;;;;5.50;2.67;;;;;;;;;;5068836;28;20040;-74
2022/08/22 17:26:13;;;;;;;5.13;2.53;;;;;;;;;;5055641;28;20036;-73
2022/08/22 17:29:20;;;;;;;4.53;2.90;;;;;;;;;;5059407;28;20480;-73
2022/08/22 17:32:14;;;;;;;4.05;2.80;;;;;;;;;;5060538;28;20605;-75